createdAt,value
2023-05-25T00:01:45.100Z,16.49
2023-05-25T00:04:17.542Z,16.52
2023-05-25T00:06:45.712Z,16.54
2023-05-25T00:09:13.271Z,16.54
2023-05-25T00:11:40.429Z,16.57
2023-05-25T00:14:08.563Z,16.53
2023-05-25T00:16:37.912Z,16.56
2023-05-25T00:19:07.103Z,16.56
2023-05-25T00:21:34.521Z,16.53
2023-05-25T00:24:01.674Z,16.54
2023-05-25T00:26:28.697Z,16.51
2023-05-25T00:28:55.934Z,16.53
2023-05-25T00:31:23.176Z,16.52
2023-05-25T00:33:50.609Z,16.50
2023-05-25T00:36:17.858Z,16.45
2023-05-25T00:38:46.138Z,16.41
2023-05-25T00:41:13.744Z,16.35
2023-05-25T00:43:41.007Z,16.29
2023-05-25T00:46:10.142Z,16.23
2023-05-25T00:48:39.574Z,16.17
2023-05-25T00:51:07.561Z,16.12
2023-05-25T00:53:37.284Z,16.09
2023-05-25T00:56:23.389Z,16.08
2023-05-25T00:58:54.963Z,16.07
2023-05-25T01:01:23.175Z,16.02
2023-05-25T01:03:54.236Z,16.07
2023-05-25T01:06:23.260Z,16.09
2023-05-25T01:08:54.574Z,16.06
2023-05-25T01:11:26.779Z,16.03
2023-05-25T01:13:54.734Z,16.00
2023-05-25T01:16:22.708Z,15.99
2023-05-25T01:18:52.817Z,15.97
2023-05-25T01:21:48.169Z,15.97
2023-05-25T01:24:43.181Z,15.96
2023-05-25T01:27:22.742Z,15.97
2023-05-25T01:29:50.012Z,15.95
2023-05-25T01:32:18.959Z,15.93
2023-05-25T01:34:48.570Z,15.93
2023-05-25T01:37:17.603Z,15.91
2023-05-25T01:39:45.018Z,15.87
2023-05-25T01:42:12.503Z,15.88
2023-05-25T01:44:40.158Z,15.86
2023-05-25T01:47:23.906Z,15.84
2023-05-25T01:50:06.570Z,15.87
2023-05-25T01:52:38.670Z,15.89
2023-05-25T01:55:08.586Z,15.92
2023-05-25T01:57:41.647Z,15.93
2023-05-25T02:00:12.223Z,15.97
2023-05-25T02:02:45.790Z,16.03
2023-05-25T02:05:13.900Z,16.06
2023-05-25T02:07:41.162Z,16.13
2023-05-25T02:10:08.641Z,16.20
2023-05-25T02:12:35.826Z,16.26
2023-05-25T02:15:05.532Z,16.32
2023-05-25T02:17:34.134Z,16.39
2023-05-25T02:20:21.211Z,16.42
2023-05-25T02:22:48.238Z,16.54
2023-05-25T02:25:15.531Z,16.62
2023-05-25T02:27:43.158Z,16.71
2023-05-25T02:30:10.544Z,16.81
2023-05-25T02:32:37.932Z,16.91
2023-05-25T02:35:05.342Z,17.01
2023-05-25T02:37:33.390Z,17.12
2023-05-25T02:40:00.865Z,17.21
2023-05-25T02:42:27.999Z,17.32
2023-05-25T02:44:55.026Z,17.42
2023-05-25T02:47:22.116Z,17.49
2023-05-25T02:49:49.538Z,17.57
2023-05-25T02:52:16.605Z,17.64
2023-05-25T02:54:43.750Z,17.70
2023-05-25T02:57:17.534Z,17.72
2023-05-25T02:59:44.693Z,17.81
2023-05-25T03:02:12.164Z,17.86
2023-05-25T03:04:39.657Z,17.92
2023-05-25T03:07:06.797Z,17.95
2023-05-25T03:09:33.989Z,18.04
2023-05-25T03:12:03.517Z,18.13
2023-05-25T03:14:31.278Z,18.22
2023-05-25T03:17:04.465Z,18.30
2023-05-25T03:19:32.450Z,18.39
2023-05-25T03:22:00.425Z,18.46
2023-05-25T03:24:27.501Z,18.55
2023-05-25T03:26:57.641Z,18.66
2023-05-25T03:29:24.843Z,18.76
2023-05-25T03:31:52.257Z,18.84
2023-05-25T03:34:21.269Z,18.97
2023-05-25T03:36:49.347Z,19.01
2023-05-25T03:39:18.031Z,19.14
2023-05-25T03:41:45.441Z,19.19
2023-05-25T03:44:13.340Z,19.23
2023-05-25T03:46:41.363Z,19.27
2023-05-25T03:49:13.941Z,19.32
2023-05-25T03:51:42.912Z,19.33
2023-05-25T03:54:10.543Z,19.43
2023-05-25T03:56:37.594Z,19.53
2023-05-25T03:59:06.325Z,19.61
2023-05-25T04:01:33.560Z,19.73
2023-05-25T04:04:02.774Z,19.82
2023-05-25T04:06:30.270Z,19.87
2023-05-25T04:08:58.163Z,19.94
2023-05-25T04:11:27.777Z,19.97
2023-05-25T04:13:55.044Z,19.98
2023-05-25T04:16:26.190Z,19.94
2023-05-25T04:18:53.324Z,19.95
2023-05-25T04:21:21.500Z,19.92
2023-05-25T04:23:48.894Z,19.88
2023-05-25T04:26:16.596Z,19.86
2023-05-25T04:28:47.290Z,19.84
2023-05-25T04:31:35.530Z,19.83
2023-05-25T04:34:15.196Z,19.82
2023-05-25T04:37:05.812Z,19.84
2023-05-25T04:39:33.760Z,19.89
2023-05-25T04:42:04.942Z,19.94
2023-05-25T04:44:34.129Z,20.02
2023-05-25T04:47:03.127Z,20.10
2023-05-25T04:49:34.339Z,20.16
2023-05-25T04:52:01.638Z,20.19
2023-05-25T04:54:30.584Z,20.23
2023-05-25T04:57:00.502Z,20.25
2023-05-25T04:59:27.755Z,20.29
2023-05-25T05:01:55.018Z,20.29
2023-05-25T05:04:22.397Z,20.27
2023-05-25T05:06:50.131Z,20.27
2023-05-25T05:09:20.072Z,20.26
2023-05-25T05:11:47.774Z,20.27
2023-05-25T05:14:15.023Z,20.27
2023-05-25T05:16:44.001Z,20.26
2023-05-25T05:19:11.843Z,20.22
2023-05-25T05:21:39.283Z,20.19
2023-05-25T05:24:07.590Z,20.18
2023-05-25T05:26:48.159Z,20.18
2023-05-25T05:29:24.139Z,20.23
2023-05-25T05:31:51.493Z,20.24
2023-05-25T05:34:18.529Z,20.27
2023-05-25T05:36:57.161Z,20.33
2023-05-25T05:39:29.032Z,20.45
2023-05-25T05:41:56.394Z,20.54
2023-05-25T05:44:26.895Z,20.57
2023-05-25T05:47:00.826Z,20.65
2023-05-25T05:49:30.160Z,20.73
2023-05-25T05:51:58.888Z,20.82
2023-05-25T05:54:28.135Z,20.92
2023-05-25T05:56:56.820Z,21.02
2023-05-25T05:59:24.369Z,21.15
2023-05-25T06:01:51.519Z,21.23
2023-05-25T06:04:19.680Z,21.32
2023-05-25T06:06:47.133Z,21.38
2023-05-25T06:09:14.551Z,21.46
2023-05-25T06:11:41.975Z,21.55
2023-05-25T06:14:10.990Z,21.64
2023-05-25T06:16:38.239Z,21.70
2023-05-25T06:19:05.616Z,21.66
2023-05-25T06:21:32.822Z,21.61
2023-05-25T06:23:59.795Z,21.60
2023-05-25T06:26:27.391Z,21.59
2023-05-25T06:28:57.638Z,21.60
2023-05-25T06:31:25.336Z,21.52
2023-05-25T06:33:52.943Z,21.45
2023-05-25T06:36:20.461Z,21.40
2023-05-25T06:38:47.637Z,21.38
2023-05-25T06:41:15.525Z,21.35
2023-05-25T06:43:43.929Z,21.33
2023-05-25T06:46:32.930Z,21.32
2023-05-25T06:49:01.424Z,21.30
2023-05-25T06:51:29.454Z,21.28
2023-05-25T06:53:57.109Z,21.26
2023-05-25T06:56:24.944Z,21.28
2023-05-25T06:58:52.254Z,21.29
2023-05-25T07:01:22.799Z,21.32
2023-05-25T07:03:50.123Z,21.35
2023-05-25T07:06:17.627Z,21.39
2023-05-25T07:08:44.888Z,21.40
2023-05-25T07:11:14.339Z,21.37
2023-05-25T07:13:41.985Z,21.30
2023-05-25T07:16:09.212Z,21.17
2023-05-25T07:18:39.546Z,21.06
2023-05-25T07:21:10.287Z,20.94
2023-05-25T07:23:38.430Z,20.87
2023-05-25T07:26:06.489Z,20.78
2023-05-25T07:28:34.267Z,20.75
2023-05-25T07:31:01.753Z,20.69
2023-05-25T07:33:29.428Z,20.64
2023-05-25T07:36:12.596Z,20.58
2023-05-25T07:38:40.068Z,20.50
2023-05-25T07:41:07.282Z,20.41
2023-05-25T07:43:34.434Z,20.32
2023-05-25T07:46:04.942Z,20.25
2023-05-25T07:48:32.054Z,20.17
2023-05-25T07:50:59.611Z,20.13
2023-05-25T07:53:26.609Z,20.07
2023-05-25T07:55:53.692Z,20.02
2023-05-25T07:58:21.619Z,19.99
2023-05-25T08:00:50.337Z,19.94
2023-05-25T08:03:18.059Z,19.90
2023-05-25T08:05:45.505Z,19.85
2023-05-25T08:08:14.395Z,19.78
2023-05-25T08:10:41.663Z,19.70
2023-05-25T08:13:10.199Z,19.70
2023-05-25T08:15:37.331Z,19.66
2023-05-25T08:18:07.554Z,19.61
2023-05-25T08:20:35.054Z,19.55
2023-05-25T08:23:02.295Z,19.45
2023-05-25T08:25:29.568Z,19.40
2023-05-25T08:27:56.957Z,19.33
2023-05-25T08:30:24.190Z,19.25
2023-05-25T08:32:51.688Z,19.22
2023-05-25T08:35:19.840Z,19.14
2023-05-25T08:37:47.095Z,19.10
2023-05-25T08:40:19.427Z,19.10
2023-05-25T08:42:47.475Z,19.12
2023-05-25T08:45:30.490Z,19.11
2023-05-25T08:48:02.033Z,19.11
2023-05-25T08:50:31.279Z,19.10
2023-05-25T08:53:03.422Z,19.04
2023-05-25T08:55:36.999Z,19.01
2023-05-25T08:58:24.117Z,18.96
2023-05-25T09:00:56.784Z,18.86
2023-05-25T09:03:24.744Z,18.78
2023-05-25T09:05:52.211Z,18.67
2023-05-25T09:08:20.997Z,18.61
2023-05-25T09:10:49.504Z,18.53
2023-05-25T09:13:22.380Z,18.50
2023-05-25T09:15:53.240Z,18.46
2023-05-25T09:18:20.707Z,18.41
2023-05-25T09:20:51.982Z,18.34
2023-05-25T09:23:19.610Z,18.30
2023-05-25T09:25:51.204Z,18.17
2023-05-25T09:30:51.679Z,17.87
2023-05-25T09:33:19.867Z,17.76
2023-05-25T09:35:49.125Z,17.72
2023-05-25T09:38:17.296Z,17.68
2023-05-25T09:40:45.532Z,17.69
2023-05-25T09:43:28.492Z,17.68
2023-05-25T09:46:04.886Z,17.62
2023-05-25T09:48:32.378Z,17.63
2023-05-25T09:50:59.587Z,17.60
2023-05-25T09:53:26.917Z,17.64
2023-05-25T09:55:54.575Z,17.70
2023-05-25T09:58:25.313Z,17.71
2023-05-25T10:00:55.974Z,17.74
2023-05-25T10:03:23.705Z,17.78
2023-05-25T10:05:53.712Z,17.80
2023-05-25T10:08:21.944Z,17.83
2023-05-25T10:10:50.705Z,17.88
2023-05-25T10:13:25.012Z,17.94
2023-05-25T10:15:54.788Z,18.00
2023-05-25T10:18:26.922Z,18.02
2023-05-25T10:21:02.697Z,18.11
2023-05-25T10:23:45.060Z,18.15
2023-05-25T10:26:17.028Z,18.20
2023-05-25T10:28:46.235Z,18.24
2023-05-25T10:31:14.913Z,18.32
2023-05-25T10:33:49.017Z,18.34
2023-05-25T10:36:20.823Z,18.39
2023-05-25T10:38:51.058Z,18.45
2023-05-25T10:41:21.067Z,18.52
2023-05-25T10:43:49.294Z,18.57
2023-05-25T10:46:17.331Z,18.64
2023-05-25T10:48:49.036Z,18.71
2023-05-25T10:51:19.772Z,18.70
2023-05-25T10:53:58.588Z,18.71
2023-05-25T10:56:25.770Z,18.73
2023-05-25T10:58:53.131Z,18.72
2023-05-25T11:01:24.804Z,18.70
2023-05-25T11:04:10.718Z,18.70
2023-05-25T11:06:37.955Z,18.69
2023-05-25T11:09:23.372Z,18.69
2023-05-25T11:11:50.961Z,18.71
2023-05-25T11:14:30.002Z,18.73
2023-05-25T11:17:10.733Z,18.72
2023-05-25T11:19:50.774Z,18.73
2023-05-25T11:22:37.855Z,18.74
2023-05-25T11:25:38.251Z,18.78
2023-05-25T11:28:19.995Z,18.80
2023-05-25T11:30:47.840Z,18.87
2023-05-25T11:33:21.973Z,18.92
2023-05-25T11:35:50.206Z,18.92
2023-05-25T11:38:22.800Z,18.90
2023-05-25T11:40:57.720Z,18.94
2023-05-25T11:43:27.173Z,18.89
2023-05-25T11:45:57.840Z,18.93
2023-05-25T11:48:25.394Z,18.85
2023-05-25T11:51:27.269Z,18.94
2023-05-25T11:53:59.227Z,18.82
2023-05-25T11:56:39.802Z,18.92
2023-05-25T12:00:24.464Z,18.97
2023-05-25T12:02:52.205Z,18.91
2023-05-25T12:05:28.331Z,18.87
2023-05-25T12:07:55.995Z,18.82
2023-05-25T12:10:25.681Z,18.79
2023-05-25T12:12:59.477Z,18.78
2023-05-25T12:16:02.389Z,18.63
2023-05-25T12:18:30.056Z,18.84
2023-05-25T12:21:00.343Z,18.79
2023-05-25T12:23:30.184Z,18.68
2023-05-25T12:26:37.238Z,18.81
2023-05-25T12:34:50.218Z,18.95
2023-05-25T12:37:50.059Z,18.87
2023-05-25T12:47:21.417Z,19.26
2023-05-25T12:49:53.963Z,19.26
2023-05-25T12:52:37.138Z,19.30
2023-05-25T12:55:27.662Z,19.37
2023-05-25T12:58:06.483Z,19.44
2023-05-25T13:00:36.610Z,19.52
2023-05-25T13:03:08.061Z,19.57
2023-05-25T13:05:40.957Z,19.57
2023-05-25T13:08:08.362Z,19.47
2023-05-25T13:10:38.328Z,19.47
2023-05-25T13:13:08.801Z,19.46
2023-05-25T13:15:39.225Z,19.38
2023-05-25T13:18:09.785Z,19.42
2023-05-25T13:20:37.425Z,19.40
2023-05-25T13:23:06.243Z,19.36
2023-05-25T13:25:42.369Z,19.29
2023-05-25T13:28:09.670Z,19.29
2023-05-25T13:30:36.992Z,19.26
2023-05-25T13:33:04.733Z,19.23
2023-05-25T13:35:42.411Z,19.19
2023-05-25T13:38:11.002Z,19.19
2023-05-25T13:40:38.839Z,19.22
2023-05-25T13:43:08.810Z,19.24
2023-05-25T13:45:36.424Z,19.30
2023-05-25T13:48:03.982Z,19.35
2023-05-25T13:50:31.628Z,19.35
2023-05-25T13:53:02.444Z,19.37
2023-05-25T13:55:30.074Z,19.34
2023-05-25T13:57:57.975Z,19.32
2023-05-25T14:00:25.924Z,19.27
2023-05-25T14:02:53.801Z,19.22
2023-05-25T14:05:21.359Z,19.25
2023-05-25T14:11:45.834Z,19.38
2023-05-25T14:14:26.959Z,19.33
2023-05-25T14:16:58.501Z,19.40
2023-05-25T14:19:25.656Z,19.43
2023-05-25T14:22:11.180Z,19.48
2023-05-25T14:24:40.151Z,19.47
2023-05-25T14:27:07.579Z,19.55
2023-05-25T14:29:35.005Z,19.59
2023-05-25T14:32:02.306Z,19.61
2023-05-25T14:34:29.811Z,19.62
2023-05-25T14:36:57.020Z,19.66
2023-05-25T14:39:24.151Z,19.73
2023-05-25T14:41:51.320Z,19.87
2023-05-25T14:44:18.524Z,19.95
2023-05-25T14:46:46.491Z,20.07
2023-05-25T14:49:13.982Z,20.19
2023-05-25T14:51:41.397Z,20.25
2023-05-25T14:54:08.772Z,20.29
2023-05-25T14:56:35.918Z,20.34
2023-05-25T14:59:02.968Z,20.42
2023-05-25T15:01:30.104Z,20.46
2023-05-25T15:03:59.344Z,20.51
2023-05-25T15:06:26.601Z,20.55
2023-05-25T15:08:53.929Z,20.60
2023-05-25T15:11:21.032Z,20.65
2023-05-25T15:13:48.381Z,21.13
2023-05-25T15:16:17.259Z,22.12
2023-05-25T15:18:45.264Z,23.24
2023-05-25T15:21:12.506Z,24.29
2023-05-25T15:23:39.648Z,24.79
2023-05-25T15:26:08.291Z,24.81
2023-05-25T15:28:35.591Z,24.91
2023-05-25T15:31:03.512Z,25.22
2023-05-25T15:33:47.192Z,25.41
2023-05-25T15:36:17.187Z,25.41
2023-05-25T15:38:45.887Z,25.62
2023-05-25T15:41:17.406Z,26.08
2023-05-25T15:44:01.238Z,26.79
2023-05-25T15:46:28.896Z,27.18
2023-05-25T15:48:56.401Z,27.09
2023-05-25T15:51:23.463Z,27.07
2023-05-25T15:53:50.749Z,27.20
2023-05-25T15:56:17.901Z,27.37
2023-05-25T15:58:48.991Z,27.59
2023-05-25T16:01:16.846Z,27.92
2023-05-25T16:03:44.990Z,28.35
2023-05-25T16:06:12.372Z,28.76
2023-05-25T16:08:41.912Z,29.17
2023-05-25T16:11:09.277Z,29.49
2023-05-25T16:13:36.447Z,29.68
2023-05-25T16:16:03.803Z,29.83
2023-05-25T16:18:31.018Z,29.96
2023-05-25T16:20:58.280Z,30.05
2023-05-25T16:23:26.085Z,30.06
2023-05-25T16:25:53.698Z,30.02
2023-05-25T16:28:20.963Z,30.09
2023-05-25T16:30:48.155Z,30.10
2023-05-25T16:33:15.573Z,30.10
2023-05-25T16:35:43.591Z,30.05
2023-05-25T16:38:11.141Z,29.86
2023-05-25T16:41:01.633Z,29.84
2023-05-25T16:43:29.018Z,29.58
2023-05-25T16:45:56.402Z,29.41
2023-05-25T16:48:23.852Z,29.13
2023-05-25T16:50:51.068Z,28.93
2023-05-25T16:53:18.360Z,28.60
2023-05-25T16:55:45.790Z,28.33
2023-05-25T16:58:13.544Z,28.07
2023-05-25T17:00:40.939Z,27.79
2023-05-25T17:03:08.549Z,27.49
2023-05-25T17:05:36.008Z,27.27
2023-05-25T17:08:03.196Z,26.97
2023-05-25T17:10:30.673Z,26.58
2023-05-25T17:12:57.963Z,26.15
2023-05-25T17:15:25.199Z,25.79
2023-05-25T17:17:52.552Z,25.40
2023-05-25T17:20:19.721Z,24.96
2023-05-25T17:22:46.797Z,24.61
2023-05-25T17:25:13.996Z,24.22
2023-05-25T17:27:41.057Z,23.88
2023-05-25T17:30:08.903Z,23.56
2023-05-25T17:32:36.278Z,23.18
2023-05-25T17:35:03.848Z,22.79
2023-05-25T17:37:35.662Z,22.36
2023-05-25T17:40:07.064Z,21.88
2023-05-25T17:42:34.380Z,21.67
2023-05-25T17:45:01.664Z,21.41
2023-05-25T17:47:33.146Z,21.13
2023-05-25T17:50:00.507Z,20.90
2023-05-25T17:52:29.488Z,20.69
2023-05-25T17:54:56.612Z,20.48
2023-05-25T17:57:23.870Z,20.27
2023-05-25T17:59:51.030Z,20.11
2023-05-25T18:02:18.743Z,19.96
2023-05-25T18:04:46.159Z,19.76
2023-05-25T18:07:13.257Z,19.65
2023-05-25T18:09:40.394Z,19.53
2023-05-25T18:12:08.749Z,19.41
2023-05-25T18:14:37.968Z,19.28
2023-05-25T18:17:05.375Z,19.15
2023-05-25T18:19:32.634Z,19.05
2023-05-25T18:21:59.848Z,18.92
2023-05-25T18:24:28.049Z,18.87
2023-05-25T18:26:55.321Z,18.76
2023-05-25T18:29:22.700Z,18.69
2023-05-25T18:31:50.296Z,18.62
2023-05-25T18:34:18.204Z,18.54
2023-05-25T18:36:45.764Z,18.43
2023-05-25T18:39:12.870Z,18.36
2023-05-25T18:41:40.149Z,18.29
2023-05-25T18:44:08.235Z,18.22
2023-05-25T18:46:37.670Z,18.18
2023-05-25T18:49:04.863Z,18.13
2023-05-25T18:51:32.002Z,18.07
2023-05-25T18:53:59.022Z,18.01
2023-05-25T18:56:26.210Z,17.94
2023-05-25T18:58:55.510Z,17.90
2023-05-25T19:01:24.816Z,17.86
2023-05-25T19:03:52.381Z,17.82
2023-05-25T19:06:19.570Z,17.75
2023-05-25T19:08:46.837Z,17.73
2023-05-25T19:11:15.648Z,17.69
2023-05-25T19:13:42.922Z,17.65
2023-05-25T19:16:10.091Z,17.62
2023-05-25T19:18:37.358Z,17.56
2023-05-25T19:21:04.645Z,17.47
2023-05-25T19:23:32.012Z,17.48
2023-05-25T19:25:59.649Z,17.41
2023-05-25T19:28:26.863Z,17.39
2023-05-25T19:30:54.022Z,17.36
2023-05-25T19:33:21.211Z,17.33
2023-05-25T19:35:48.410Z,17.31
2023-05-25T19:38:16.650Z,17.25
2023-05-25T19:40:44.085Z,17.20
2023-05-25T19:43:11.706Z,17.21
2023-05-25T19:45:38.897Z,17.16
2023-05-25T19:48:06.162Z,17.08
2023-05-25T19:50:33.508Z,17.06
2023-05-25T19:53:01.036Z,17.05
2023-05-25T19:55:30.104Z,17.02
2023-05-25T19:57:58.658Z,16.98
2023-05-25T20:00:27.003Z,16.96
2023-05-25T20:02:54.783Z,16.91
2023-05-25T20:05:22.151Z,16.91
2023-05-25T20:07:51.041Z,16.89
2023-05-25T20:10:18.476Z,16.86
2023-05-25T20:12:45.632Z,16.83
2023-05-25T20:15:12.907Z,16.79
2023-05-25T20:17:40.681Z,16.73
2023-05-25T20:20:08.293Z,16.69
2023-05-25T20:22:35.560Z,16.71
2023-05-25T20:25:02.835Z,16.69
2023-05-25T20:27:30.569Z,16.65
2023-05-25T20:29:57.739Z,16.66
2023-05-25T20:32:26.433Z,16.63
2023-05-25T20:34:53.601Z,16.59
2023-05-25T20:37:20.814Z,16.50
2023-05-25T20:39:47.893Z,16.53
2023-05-25T20:42:15.037Z,16.54
2023-05-25T20:44:42.448Z,16.52
2023-05-25T20:47:09.712Z,16.51
2023-05-25T20:49:36.822Z,16.45
2023-05-25T20:52:04.281Z,16.46
2023-05-25T20:54:32.062Z,16.41
2023-05-25T20:57:03.807Z,16.38
2023-05-25T20:59:31.950Z,16.36
2023-05-25T21:01:59.160Z,16.32
2023-05-25T21:04:26.336Z,16.31
2023-05-25T21:06:54.303Z,16.30
2023-05-25T21:09:22.512Z,16.26
2023-05-25T21:11:49.944Z,16.28
2023-05-25T21:14:17.215Z,16.27
2023-05-25T21:16:44.742Z,16.24
2023-05-25T21:19:11.935Z,16.25
2023-05-25T21:21:39.289Z,16.23
2023-05-25T21:24:06.602Z,16.22
2023-05-25T21:26:33.769Z,16.19
2023-05-25T21:29:01.424Z,16.18
2023-05-25T21:31:28.855Z,16.16
2023-05-25T21:33:55.913Z,16.12
2023-05-25T21:36:23.110Z,16.08
2023-05-25T21:38:50.651Z,16.06
2023-05-25T21:41:17.913Z,16.03
2023-05-25T21:43:45.044Z,15.98
2023-05-25T21:46:12.149Z,15.96
2023-05-25T21:48:39.282Z,15.93
2023-05-25T21:51:06.577Z,15.92
2023-05-25T21:53:33.865Z,15.90
2023-05-25T21:56:04.432Z,15.87
2023-05-25T21:58:31.669Z,15.87
2023-05-25T22:03:26.396Z,15.81
2023-05-25T22:05:53.629Z,15.78
2023-05-25T22:08:20.925Z,15.77
2023-05-25T22:10:48.077Z,15.74
2023-05-25T22:13:15.192Z,15.73
2023-05-25T22:15:44.403Z,15.72
2023-05-25T22:18:11.721Z,15.69
2023-05-25T22:20:41.588Z,15.66
2023-05-25T22:23:11.348Z,15.64
2023-05-25T22:25:38.465Z,15.61
2023-05-25T22:28:05.865Z,15.57
2023-05-25T22:30:32.966Z,15.55
2023-05-25T22:33:00.352Z,15.52
2023-05-25T22:35:27.492Z,15.49
2023-05-25T22:37:54.520Z,15.44
2023-05-25T22:40:21.657Z,15.41
2023-05-25T22:42:51.534Z,15.38
2023-05-25T22:45:20.567Z,15.37
2023-05-25T22:47:49.020Z,15.33
2023-05-25T22:50:16.757Z,15.30
2023-05-25T22:52:44.016Z,15.26
2023-05-25T22:55:11.858Z,15.18
2023-05-25T23:00:25.516Z,15.17
2023-05-25T23:02:52.979Z,15.12
2023-05-25T23:05:20.208Z,15.12
2023-05-25T23:07:47.344Z,15.09
2023-05-25T23:10:14.569Z,15.08
2023-05-25T23:12:41.968Z,15.07
2023-05-25T23:15:09.784Z,15.07
2023-05-25T23:17:37.554Z,15.07
2023-05-25T23:20:07.305Z,15.04
2023-05-25T23:22:34.871Z,15.05
2023-05-25T23:25:02.282Z,15.05
2023-05-25T23:27:31.947Z,15.03
2023-05-25T23:29:59.087Z,15.02
2023-05-25T23:32:26.247Z,15.05
2023-05-25T23:34:53.396Z,15.05
2023-05-25T23:37:20.912Z,15.04
2023-05-25T23:39:48.038Z,15.02
2023-05-25T23:42:16.875Z,15.01
2023-05-25T23:44:44.207Z,15.00
2023-05-25T23:47:11.282Z,15.00
2023-05-25T23:49:38.378Z,15.00
2023-05-25T23:52:06.557Z,15.00
2023-05-25T23:54:33.859Z,14.99
2023-05-25T23:57:01.300Z,14.99
2023-05-25T23:59:31.584Z,15.03
